Saint-Paul-De-Montminy, Canada
Current Conditions -  °F | °C
As of 7:00 AM on Thursday 23 Oct 2014 (Local Time) from CYQB Reporting Station
Rain Showers Rain Showers  
Wind Chill: 35°   Ceiling: 6200
Heat Index: 43°   Visibility: 30mi
Dew Point: 36°   Wind: 18mph
Humidity: 76%   Direction: 60°ENE
Pressure: 30.18"   Gusts: 25mph
Location:  46.73°N, 70.37°W
Report Text: CYQB 231100Z 06016G22KT 30SM -SHRA FEW028 OVC062 06/02 A3018 RMK SC2SC6 SLP224
Loading
Personal Weather Stations






























Interactive Weather Map
Tropical Storm Tracking
New forecast layout! Learn more

10-Day Weather Forecast

Advertisements
Track Severe Weather on mobile